Tamms, Illinois
Current Conditions -  °F | °C
As of 8:55 PM on Thursday 18 Dec 2014 (Local Time) from KCIR Reporting Station
Overcast Overcast  
Wind Chill: 38°   Ceiling: 5500
Heat Index: 38°   Visibility: 10mi
Dew Point: 34°   Wind: 3mph
Humidity: 87%   Direction: 10°N
Pressure: 30.27"   Gusts: NA
Location:  37.24°N, 89.27°W
Report Text: KCIR 190255Z AUTO 01003KT 10SM OVC055 03/01 A3027 RMK AO2 60001 T00320012
Loading
Personal Weather Stations






























Interactive Weather Map New forecast layout! Learn more

10-Day Weather Forecast

Advertisements
Track Severe Weather on mobile